createdAt,value
2018-09-15T00:01:57.435Z,79.30
2018-09-15T00:04:34.120Z,79.20
2018-09-15T00:07:10.175Z,79.20
2018-09-15T00:09:43.238Z,79.00
2018-09-15T00:12:23.794Z,79.00
2018-09-15T00:15:06.234Z,78.70
2018-09-15T00:20:30.159Z,78.80
2018-09-15T00:23:08.845Z,78.60
2018-09-15T00:25:46.061Z,78.70
2018-09-15T00:28:19.038Z,78.50
2018-09-15T00:30:56.839Z,78.20
2018-09-15T00:48:05.581Z,77.80
2018-09-15T00:50:47.238Z,78.20
2018-09-15T00:53:25.284Z,78.10
2018-09-15T00:56:01.919Z,78.10
2018-09-15T00:58:36.379Z,78.00
2018-09-15T01:01:14.462Z,77.90
2018-09-15T01:03:50.884Z,78.10
2018-09-15T01:06:35.761Z,77.90
2018-09-15T01:09:17.503Z,78.10
2018-09-15T01:11:53.327Z,78.00
2018-09-15T01:14:30.478Z,78.00
2018-09-15T01:17:12.521Z,78.20
2018-09-15T01:19:44.510Z,78.30
2018-09-15T01:22:16.022Z,78.30
2018-09-15T01:24:50.184Z,78.40
2018-09-15T01:27:22.538Z,78.60
2018-09-15T01:29:56.394Z,78.10
2018-09-15T01:32:31.938Z,78.60
2018-09-15T01:35:05.164Z,79.20
2018-09-15T01:37:36.602Z,78.80
2018-09-15T01:40:11.878Z,79.00
2018-09-15T01:42:57.732Z,79.00
2018-09-15T01:52:24.083Z,79.30
2018-09-15T01:54:57.033Z,79.60
2018-09-15T02:00:34.625Z,80.20
2018-09-15T02:06:53.421Z,80.10
2018-09-15T02:17:39.838Z,79.70
2018-09-15T02:31:56.032Z,81.70
2018-09-15T02:37:35.512Z,80.90
2018-09-15T02:43:18.073Z,81.50
2018-09-15T02:46:23.325Z,81.10
2018-09-15T03:58:20.729Z,80.50
2018-09-15T04:01:11.103Z,79.70
2018-09-15T04:03:49.581Z,79.50
2018-09-15T04:09:31.027Z,79.20
2018-09-15T04:18:15.410Z,79.40
2018-09-15T04:33:04.046Z,79.60
2018-09-15T04:42:15.736Z,81.80
2018-09-15T04:45:26.568Z,81.20
2018-09-15T04:48:27.796Z,80.80
2018-09-15T04:51:29.309Z,80.70
2018-09-15T04:56:32.708Z,80.80
2018-09-15T05:09:55.575Z,80.50
2018-09-15T05:15:24.861Z,80.70
2018-09-15T05:18:26.362Z,80.90
2018-09-15T05:21:07.461Z,81.60
2018-09-15T05:23:44.623Z,81.40
2018-09-15T05:26:31.637Z,81.70
2018-09-15T05:29:04.837Z,81.80
2018-09-15T05:31:52.346Z,81.50
2018-09-15T05:34:30.245Z,81.90
2018-09-15T05:37:10.340Z,82.20
2018-09-15T05:39:56.748Z,82.10
2018-09-15T05:46:07.652Z,81.90
2018-09-15T05:48:53.790Z,81.60
2018-09-15T05:51:37.134Z,81.90
2018-09-15T05:57:20.184Z,81.40
2018-09-15T06:00:02.593Z,81.00
2018-09-15T06:02:44.235Z,81.90
2018-09-15T06:05:27.290Z,81.90
2018-09-15T06:08:11.114Z,81.40
2018-09-15T06:19:52.428Z,80.30
2018-09-15T06:43:22.825Z,78.60
2018-09-15T06:46:02.078Z,78.30
2018-09-15T06:48:44.118Z,77.60
2018-09-15T06:54:14.563Z,76.90
2018-09-15T06:56:47.447Z,77.10
2018-09-15T06:59:27.874Z,76.60
2018-09-15T07:02:03.827Z,76.40
2018-09-15T07:04:53.555Z,76.10
2018-09-15T07:07:43.662Z,76.20
2018-09-15T07:10:31.470Z,75.90
2018-09-15T07:13:12.370Z,75.50
2018-09-15T07:19:01.765Z,74.50
2018-09-15T07:22:18.891Z,74.30
2018-09-15T07:27:51.804Z,72.50
2018-09-15T07:34:13.214Z,72.50
2018-09-15T07:45:51.331Z,70.40
2018-09-15T07:48:27.419Z,70.20
2018-09-15T07:51:06.885Z,69.40
2018-09-15T07:53:38.233Z,69.00
2018-09-15T07:56:19.261Z,69.20
2018-09-15T07:58:56.199Z,68.90
2018-09-15T08:01:32.688Z,68.70
2018-09-15T08:04:16.581Z,68.20
2018-09-15T08:06:54.395Z,67.70
2018-09-15T08:12:22.516Z,67.20
2018-09-15T08:15:04.934Z,66.10
2018-09-15T08:17:41.434Z,66.10
2018-09-15T08:26:49.610Z,64.70
2018-09-15T08:29:28.374Z,64.20
2018-09-15T08:32:10.717Z,63.60
2018-09-15T08:34:43.508Z,62.50
2018-09-15T08:37:13.144Z,62.40
2018-09-15T08:39:51.686Z,61.80
2018-09-15T08:42:26.924Z,62.50
2018-09-15T08:46:44.812Z,61.40
2018-09-15T08:52:20.744Z,61.20
2018-09-15T08:55:02.843Z,60.70
2018-09-15T08:57:34.950Z,60.60
2018-09-15T09:00:19.861Z,60.20
2018-09-15T09:03:02.250Z,59.60
2018-09-15T09:05:34.993Z,59.60
2018-09-15T09:08:16.021Z,59.20
2018-09-15T09:10:57.175Z,59.10
2018-09-15T09:13:35.466Z,58.90
2018-09-15T09:16:10.869Z,59.00
2018-09-15T09:18:48.245Z,58.60
2018-09-15T09:21:29.861Z,58.90
2018-09-15T09:31:21.528Z,57.20
2018-09-15T09:34:03.518Z,57.20
2018-09-15T09:36:39.708Z,56.50
2018-09-15T09:39:15.664Z,56.40
2018-09-15T09:41:58.644Z,55.80
2018-09-15T09:44:39.066Z,55.70
2018-09-15T09:47:21.094Z,55.80
2018-09-15T09:53:04.832Z,55.20
2018-09-15T09:55:48.428Z,55.50
2018-09-15T10:01:36.512Z,54.60
2018-09-15T10:04:09.308Z,54.30
2018-09-15T10:06:42.596Z,54.30
2018-09-15T10:09:26.419Z,54.30
2018-09-15T10:12:06.851Z,54.60
2018-09-15T10:14:49.187Z,54.70
2018-09-15T10:17:24.752Z,54.50
2018-09-15T10:20:08.328Z,53.80
2018-09-15T10:22:41.551Z,53.20
2018-09-15T10:28:23.589Z,53.00
2018-09-15T10:34:00.153Z,51.90
2018-09-15T10:36:37.146Z,51.60
2018-09-15T10:39:16.368Z,51.70
2018-09-15T10:41:49.598Z,51.00
2018-09-15T10:44:29.352Z,51.20
2018-09-15T10:47:13.072Z,51.10
2018-09-15T10:49:50.142Z,50.70
2018-09-15T10:52:25.915Z,50.50
2018-09-15T10:55:03.026Z,50.10
2018-09-15T11:09:38.146Z,49.10
2018-09-15T11:12:18.201Z,49.00
2018-09-15T11:14:56.384Z,49.10
2018-09-15T11:17:27.838Z,49.10
2018-09-15T11:20:10.039Z,49.30
2018-09-15T11:22:43.420Z,49.50
2018-09-15T11:25:17.181Z,49.80
2018-09-15T11:30:40.119Z,49.50
2018-09-15T11:33:10.573Z,49.40
2018-09-15T11:35:42.955Z,48.60
2018-09-15T11:38:14.181Z,47.70
2018-09-15T11:40:48.971Z,47.00
2018-09-15T11:43:20.843Z,45.80
2018-09-15T11:45:52.034Z,45.20
2018-09-15T11:48:23.744Z,44.00
2018-09-15T11:50:57.965Z,43.10
2018-09-15T12:00:01.349Z,39.70
2018-09-15T12:02:39.090Z,38.30
2018-09-15T12:05:15.160Z,37.60
2018-09-15T12:07:47.464Z,36.60
2018-09-15T12:10:20.048Z,36.20
2018-09-15T12:12:51.901Z,35.60
2018-09-15T12:15:32.853Z,35.30
2018-09-15T12:18:18.646Z,34.30
2018-09-15T12:21:07.798Z,32.90
2018-09-15T12:23:45.468Z,32.20
2018-09-15T12:26:16.130Z,32.70
2018-09-15T12:28:48.369Z,33.00
2018-09-15T12:31:17.304Z,33.90
2018-09-15T12:33:46.219Z,34.40
2018-09-15T12:36:15.493Z,34.10
2018-09-15T12:38:44.665Z,33.90
2018-09-15T12:41:13.695Z,34.00
2018-09-15T12:43:43.302Z,34.40
2018-09-15T12:46:12.001Z,35.10
2018-09-15T12:48:41.166Z,35.40
2018-09-15T12:51:09.837Z,35.90
2018-09-15T12:53:48.457Z,36.50
2018-09-15T12:56:24.226Z,37.00
2018-09-15T12:58:55.402Z,37.40
2018-09-15T13:01:24.667Z,37.70
2018-09-15T13:03:57.615Z,38.50
2018-09-15T13:06:39.033Z,38.40
2018-09-15T13:09:15.133Z,38.40
2018-09-15T13:11:44.388Z,38.70
2018-09-15T13:14:14.946Z,38.80
2018-09-15T13:16:50.364Z,39.20
2018-09-15T13:19:23.326Z,39.50
2018-09-15T13:21:53.245Z,39.40
2018-09-15T13:24:32.774Z,39.50
2018-09-15T13:27:04.536Z,39.70
2018-09-15T13:29:37.768Z,39.80
2018-09-15T13:32:24.261Z,39.90
2018-09-15T13:34:56.778Z,39.80
2018-09-15T13:37:26.579Z,40.20
2018-09-15T13:39:57.589Z,40.60
2018-09-15T13:42:27.918Z,39.20
2018-09-15T13:44:56.840Z,38.50
2018-09-15T13:47:41.671Z,38.10
2018-09-15T13:50:18.973Z,38.80
2018-09-15T13:53:03.949Z,38.80
2018-09-15T13:55:44.703Z,38.10
2018-09-15T14:04:41.326Z,36.30
2018-09-15T14:07:10.233Z,36.10
2018-09-15T14:09:43.477Z,36.20
2018-09-15T14:12:12.075Z,36.50
2018-09-15T14:14:42.437Z,36.60
2018-09-15T14:17:13.650Z,36.70
2018-09-15T14:19:46.881Z,36.60
2018-09-15T14:22:18.726Z,37.00
2018-09-15T14:24:51.977Z,38.00
2018-09-15T14:27:25.859Z,37.70
2018-09-15T14:30:01.822Z,36.70
2018-09-15T14:32:36.817Z,36.00
2018-09-15T14:35:09.144Z,35.40
2018-09-15T14:37:39.280Z,34.30
2018-09-15T14:40:10.530Z,33.10
2018-09-15T14:42:42.094Z,32.70
2018-09-15T14:45:23.872Z,33.00
2018-09-15T14:47:59.829Z,33.30
2018-09-15T14:50:30.154Z,34.40
2018-09-15T14:52:59.190Z,35.00
2018-09-15T14:55:33.942Z,35.30
2018-09-15T14:58:03.386Z,35.80
2018-09-15T15:00:34.083Z,36.20
2018-09-15T15:03:07.448Z,36.20
2018-09-15T15:05:45.928Z,36.60
2018-09-15T15:08:22.589Z,37.00
2018-09-15T15:10:51.784Z,37.20
2018-09-15T15:13:21.257Z,37.60
2018-09-15T15:15:52.259Z,38.00
2018-09-15T15:18:21.771Z,38.70
2018-09-15T15:20:54.649Z,38.30
2018-09-15T15:23:33.805Z,38.40
2018-09-15T15:26:13.012Z,38.80
2018-09-15T15:28:53.517Z,39.20
2018-09-15T15:31:26.815Z,38.80
2018-09-15T15:33:59.113Z,39.40
2018-09-15T15:36:28.599Z,39.40
2018-09-15T15:39:00.213Z,39.40
2018-09-15T15:44:34.429Z,39.80
2018-09-15T15:47:07.627Z,39.90
2018-09-15T15:49:45.880Z,40.20
2018-09-15T15:52:20.252Z,40.80
2018-09-15T15:54:56.029Z,41.00
2018-09-15T15:57:35.990Z,41.30
2018-09-15T16:00:14.784Z,41.30
2018-09-15T16:02:50.756Z,40.50
2018-09-15T16:05:21.674Z,40.20
2018-09-15T16:08:02.162Z,39.40
2018-09-15T16:14:10.948Z,38.10
2018-09-15T16:16:49.482Z,37.50
2018-09-15T16:19:35.340Z,37.30
2018-09-15T16:22:21.857Z,37.60
2018-09-15T16:27:54.252Z,38.10
2018-09-15T16:30:43.334Z,37.80
2018-09-15T16:33:27.543Z,38.10
2018-09-15T16:36:05.123Z,37.30
2018-09-15T16:38:37.525Z,37.20
2018-09-15T16:41:23.675Z,37.10
2018-09-15T16:43:55.771Z,37.10
2018-09-15T16:46:25.208Z,37.10
2018-09-15T16:48:53.907Z,37.50
2018-09-15T16:51:23.000Z,36.80
2018-09-15T16:53:52.435Z,36.70
2018-09-15T16:56:21.483Z,37.00
2018-09-15T16:58:50.318Z,37.40
2018-09-15T17:01:23.327Z,37.90
2018-09-15T17:03:53.736Z,38.30
2018-09-15T17:06:23.691Z,38.50
2018-09-15T17:08:52.730Z,39.00
2018-09-15T17:11:21.288Z,39.10
2018-09-15T17:13:50.636Z,39.10
2018-09-15T17:16:21.276Z,39.50
2018-09-15T17:18:50.409Z,40.00
2018-09-15T17:21:18.933Z,40.50
2018-09-15T17:23:47.577Z,41.00
2018-09-15T17:26:16.821Z,41.50
2018-09-15T17:28:45.768Z,41.80
2018-09-15T17:31:14.949Z,42.00
2018-09-15T17:33:45.020Z,42.60
2018-09-15T17:36:15.493Z,42.60
2018-09-15T17:38:44.476Z,42.60
2018-09-15T17:41:31.795Z,42.80
2018-09-15T17:44:01.832Z,43.30
2018-09-15T17:46:31.701Z,43.80
2018-09-15T17:49:01.430Z,44.20
2018-09-15T17:51:30.884Z,45.20
2018-09-15T17:54:00.114Z,44.80
2018-09-15T17:56:30.066Z,44.90
2018-09-15T17:58:59.322Z,45.40
2018-09-15T18:01:27.944Z,45.60
2018-09-15T18:03:56.882Z,45.80
2018-09-15T18:06:25.568Z,46.10
2018-09-15T18:08:54.836Z,46.40
2018-09-15T18:11:30.236Z,46.80
2018-09-15T18:14:00.900Z,47.10
2018-09-15T18:16:30.196Z,47.70
2018-09-15T18:18:59.470Z,48.20
2018-09-15T18:21:29.152Z,48.50
2018-09-15T18:23:57.712Z,48.80
2018-09-15T18:26:27.200Z,48.90
2018-09-15T18:28:56.268Z,49.50
2018-09-15T18:31:26.149Z,49.80
2018-09-15T18:33:55.453Z,50.10
2018-09-15T18:36:24.727Z,50.40
2018-09-15T18:38:53.960Z,50.70
2018-09-15T18:41:23.288Z,50.90
2018-09-15T18:43:52.439Z,51.10
2018-09-15T18:46:21.432Z,51.40
2018-09-15T18:48:50.441Z,51.70
2018-09-15T18:51:19.129Z,51.90
2018-09-15T18:53:48.652Z,52.00
2018-09-15T18:56:18.034Z,52.40
2018-09-15T18:58:48.515Z,52.40
2018-09-15T19:01:18.528Z,52.60
2018-09-15T19:03:48.211Z,52.90
2018-09-15T19:06:17.323Z,53.00
2018-09-15T19:08:46.398Z,53.10
2018-09-15T19:11:16.011Z,53.20
2018-09-15T19:13:46.239Z,53.30
2018-09-15T19:16:16.541Z,53.40
2018-09-15T19:18:48.630Z,53.50
2018-09-15T19:21:19.398Z,53.80
2018-09-15T19:24:02.449Z,54.10
2018-09-15T19:26:33.850Z,53.80
2018-09-15T19:29:03.037Z,54.40
2018-09-15T19:31:33.542Z,54.50
2018-09-15T19:34:02.720Z,54.30
2018-09-15T19:36:34.420Z,54.60
2018-09-15T19:39:06.104Z,54.90
2018-09-15T19:41:35.512Z,55.10
2018-09-15T19:44:05.015Z,55.10
2018-09-15T19:46:37.340Z,55.10
2018-09-15T19:49:11.842Z,55.40
2018-09-15T19:51:49.187Z,55.50
2018-09-15T19:54:24.179Z,55.80
2018-09-15T19:57:02.007Z,56.10
2018-09-15T19:59:32.403Z,55.60
2018-09-15T20:02:07.397Z,55.80
2018-09-15T20:07:25.329Z,56.20
2018-09-15T20:10:12.721Z,56.40
2018-09-15T20:12:46.778Z,56.20
2018-09-15T20:18:19.847Z,56.30
2018-09-15T20:20:47.655Z,56.50
2018-09-15T20:24:01.357Z,56.70
2018-09-15T20:26:35.936Z,57.00
2018-09-15T20:29:19.301Z,57.00
2018-09-15T20:31:52.825Z,57.10
2018-09-15T20:34:26.847Z,57.40
2018-09-15T20:36:59.683Z,57.60
2018-09-15T20:39:36.793Z,57.50
2018-09-15T20:42:08.464Z,57.40
2018-09-15T20:44:42.528Z,57.60
2018-09-15T20:47:22.394Z,57.70
2018-09-15T20:49:57.546Z,57.70
2018-09-15T20:52:27.870Z,58.00
2018-09-15T20:54:58.552Z,58.10
2018-09-15T20:57:30.939Z,58.20
2018-09-15T21:00:10.613Z,58.40
2018-09-15T21:02:39.656Z,58.20
2018-09-15T21:05:11.096Z,58.30
2018-09-15T21:07:40.040Z,58.20
2018-09-15T21:10:10.434Z,58.40
2018-09-15T21:12:45.042Z,58.50
2018-09-15T21:15:13.933Z,58.50
2018-09-15T21:17:43.955Z,58.50
2018-09-15T21:20:15.015Z,58.60
2018-09-15T21:22:43.785Z,58.70
2018-09-15T21:25:15.007Z,58.70
2018-09-15T21:27:44.010Z,58.90
2018-09-15T21:30:13.093Z,59.10
2018-09-15T21:32:42.110Z,59.00
2018-09-15T21:35:11.115Z,58.90
2018-09-15T21:37:43.960Z,58.90
2018-09-15T21:40:13.146Z,59.00
2018-09-15T21:42:43.960Z,59.00
2018-09-15T21:45:13.216Z,59.10
2018-09-15T21:47:43.913Z,58.90
2018-09-15T21:50:17.441Z,59.20
2018-09-15T21:52:55.649Z,59.20
2018-09-15T21:55:30.906Z,59.40
2018-09-15T21:58:20.994Z,59.50
2018-09-15T22:00:59.172Z,59.70
2018-09-15T22:03:33.105Z,59.90
2018-09-15T22:08:58.398Z,59.80
2018-09-15T22:11:28.174Z,59.60
2018-09-15T22:14:09.286Z,59.80
2018-09-15T22:16:38.952Z,59.70
2018-09-15T22:19:09.220Z,60.00
2018-09-15T22:21:39.062Z,60.10
2018-09-15T22:24:09.078Z,60.10
2018-09-15T22:26:39.052Z,60.30
2018-09-15T22:29:09.296Z,60.40
2018-09-15T22:31:39.126Z,60.40
2018-09-15T22:34:10.347Z,60.60
2018-09-15T22:36:40.543Z,60.60
2018-09-15T22:39:11.737Z,60.60
2018-09-15T22:41:45.828Z,60.70
2018-09-15T22:44:18.034Z,60.50
2018-09-15T22:46:52.844Z,60.50
2018-09-15T22:49:25.771Z,60.50
2018-09-15T22:51:59.667Z,61.00
2018-09-15T22:54:33.165Z,60.90
2018-09-15T22:57:06.263Z,61.10
2018-09-15T22:59:37.955Z,61.40
2018-09-15T23:02:09.665Z,61.20
2018-09-15T23:04:40.309Z,61.10
2018-09-15T23:07:10.748Z,61.30
2018-09-15T23:09:41.121Z,61.40
2018-09-15T23:12:11.722Z,61.20
2018-09-15T23:14:42.051Z,61.60
2018-09-15T23:17:14.414Z,61.50
2018-09-15T23:19:45.430Z,61.70
2018-09-15T23:22:17.354Z,61.70
2018-09-15T23:24:48.114Z,61.60
2018-09-15T23:27:18.968Z,61.90
2018-09-15T23:29:49.723Z,62.00
2018-09-15T23:32:20.346Z,62.10
2018-09-15T23:34:50.756Z,62.20
2018-09-15T23:37:20.814Z,62.20
2018-09-15T23:39:51.724Z,62.10
2018-09-15T23:42:23.087Z,62.20
2018-09-15T23:44:53.103Z,62.30
2018-09-15T23:47:26.484Z,62.40
2018-09-15T23:49:57.251Z,62.30
2018-09-15T23:52:26.917Z,62.40
2018-09-15T23:54:57.608Z,62.50
2018-09-15T23:57:26.726Z,62.70
2018-09-15T23:59:56.149Z,62.60
